Time;durP1;ratioP1;P1;durP2;ratioP2;P2;SDS_P1;SDS_P2;PMS_P1;PMS_P2;Temp;Humidity;BMP_temperature;BMP_pressure;BME280_temperature;BME280_humidity;BME280_pressure;Samples;Min_cycle;Max_cycle;Signal;HPM_P1;HPM_P2
2022/07/10 00:00:11;;;;;;;2.35;0.90;;;21.50;57.60;;;;;;5003879;28;20109;-47
2022/07/10 00:02:38;;;;;;;2.95;1.20;;;21.50;57.80;;;;;;5004894;28;20438;-47
2022/07/10 00:05:05;;;;;;;1.95;1.05;;;21.40;57.90;;;;;;5004752;28;20525;-47
2022/07/10 00:07:31;;;;;;;2.85;1.25;;;21.40;57.90;;;;;;5005054;28;20034;-48
2022/07/10 00:09:56;;;;;;;3.38;1.10;;;21.30;58.20;;;;;;5006765;28;20037;-47
2022/07/10 00:12:22;;;;;;;2.45;1.20;;;21.30;58.50;;;;;;5003636;28;20041;-48
2022/07/10 00:14:47;;;;;;;1.67;1.00;;;21.20;58.50;;;;;;5004074;28;20642;-47
2022/07/10 00:17:13;;;;;;;2.83;1.15;;;21.20;58.50;;;;;;5005046;28;20032;-47
2022/07/10 00:19:39;;;;;;;1.95;1.00;;;21.10;58.60;;;;;;5035868;28;20105;-47
2022/07/10 00:22:05;;;;;;;3.50;1.40;;;21.00;58.60;;;;;;5005113;28;20034;-47
2022/07/10 00:24:31;;;;;;;1.98;1.10;;;21.00;58.50;;;;;;5004894;28;20021;-47
2022/07/10 00:26:57;;;;;;;2.30;1.10;;;21.00;58.70;;;;;;5004703;28;20418;-47
2022/07/10 00:29:23;;;;;;;3.47;1.00;;;21.00;58.50;;;;;;5005117;28;20045;-47
2022/07/10 00:31:48;;;;;;;2.40;1.10;;;21.00;58.70;;;;;;5004430;28;20088;-47
2022/07/10 00:34:14;;;;;;;3.05;1.15;;;21.00;58.80;;;;;;5004867;28;20045;-47
2022/07/10 00:36:39;;;;;;;2.92;1.23;;;20.90;58.70;;;;;;5004318;28;20109;-47
2022/07/10 00:39:05;;;;;;;2.30;1.20;;;20.90;58.90;;;;;;5007104;28;20125;-47
2022/07/10 00:41:31;;;;;;;2.28;1.23;;;20.90;58.90;;;;;;5015149;28;20029;-47
2022/07/10 00:43:59;;;;;;;2.55;1.17;;;20.90;59.00;;;;;;5004624;28;20060;-47
2022/07/10 00:46:26;;;;;;;4.25;1.50;;;20.90;59.10;;;;;;5003941;28;20748;-49
2022/07/10 00:48:52;;;;;;;4.20;1.50;;;20.90;59.20;;;;;;5004577;28;20113;-48
2022/07/10 00:51:20;;;;;;;2.58;1.25;;;20.80;59.10;;;;;;5004415;28;20616;-47
2022/07/10 00:53:48;;;;;;;3.75;1.35;;;20.80;59.20;;;;;;5003083;28;20034;-47
2022/07/10 00:56:20;;;;;;;2.25;1.10;;;20.80;59.20;;;;;;5003940;28;20108;-47
2022/07/10 00:58:47;;;;;;;2.83;1.40;;;20.80;59.20;;;;;;5004030;28;20045;-47
2022/07/10 01:01:13;;;;;;;3.08;1.42;;;20.80;59.40;;;;;;5004153;28;20705;-47
2022/07/10 01:03:39;;;;;;;2.38;1.10;;;20.70;59.50;;;;;;5004195;28;20692;-47
2022/07/10 01:06:05;;;;;;;2.67;1.60;;;20.70;59.50;;;;;;5035319;28;20672;-47
2022/07/10 01:08:32;;;;;;;2.55;1.23;;;20.70;59.60;;;;;;5002393;28;20072;-47
2022/07/10 01:10:57;;;;;;;3.47;1.58;;;20.70;59.50;;;;;;5004328;28;20108;-47
2022/07/10 01:13:23;;;;;;;3.63;1.67;;;20.70;59.50;;;;;;5004049;28;20109;-47
2022/07/10 01:15:49;;;;;;;2.85;1.48;;;20.70;59.70;;;;;;5003354;28;20034;-47
2022/07/10 01:18:15;;;;;;;3.22;1.38;;;20.70;59.60;;;;;;5003306;28;20026;-47
2022/07/10 01:20:41;;;;;;;1.90;1.15;;;20.70;59.40;;;;;;5003365;28;20032;-46
2022/07/10 01:23:06;;;;;;;2.50;1.40;;;20.70;59.30;;;;;;5004031;28;20050;-47
2022/07/10 01:25:32;;;;;;;3.13;1.30;;;20.70;59.20;;;;;;5003822;28;20042;-47
2022/07/10 01:27:58;;;;;;;2.92;1.52;;;20.70;59.30;;;;;;5003726;28;20018;-47
2022/07/10 01:30:25;;;;;;;2.85;1.50;;;20.70;59.20;;;;;;5002787;28;20103;-47
2022/07/10 01:32:52;;;;;;;2.78;1.52;;;20.70;59.20;;;;;;5004079;28;20030;-47
2022/07/10 01:35:18;;;;;;;3.03;1.38;;;20.70;59.30;;;;;;5003161;28;20084;-47
2022/07/10 01:37:44;;;;;;;2.92;1.65;;;20.70;59.30;;;;;;5002997;28;20053;-47
2022/07/10 01:40:10;;;;;;;2.67;1.23;;;20.70;59.30;;;;;;5003148;28;20122;-48
2022/07/10 01:42:37;;;;;;;2.45;1.30;;;20.60;59.30;;;;;;5003294;28;20037;-47
2022/07/10 01:45:07;;;;;;;3.15;1.50;;;20.60;59.20;;;;;;5003058;28;20037;-47
2022/07/10 01:47:33;;;;;;;2.58;1.30;;;20.60;59.40;;;;;;5002329;28;20033;-46
2022/07/10 01:49:58;;;;;;;3.45;1.50;;;20.60;59.40;;;;;;5003309;28;20046;-47
2022/07/10 01:52:24;;;;;;;3.20;1.40;;;20.50;59.50;;;;;;5002760;28;20112;-48
2022/07/10 01:54:49;;;;;;;3.40;1.67;;;20.50;59.50;;;;;;5002762;28;20054;-48
2022/07/10 01:57:15;;;;;;;1.95;1.20;;;20.50;59.70;;;;;;5003273;28;20053;-50
2022/07/10 01:59:41;;;;;;;3.47;1.48;;;20.50;60.40;;;;;;5003410;28;20721;-49
2022/07/10 02:02:07;;;;;;;2.67;1.20;;;20.50;59.60;;;;;;5002444;28;20040;-49
2022/07/10 02:04:42;;;;;;;4.65;1.52;;;20.40;59.60;;;;;;5003164;28;20026;-48
2022/07/10 02:07:21;;;;;;;2.30;1.50;;;20.40;59.60;;;;;;5003145;28;20026;-48
2022/07/10 02:09:47;;;;;;;5.05;1.70;;;20.40;59.60;;;;;;5003357;28;20038;-49
2022/07/10 02:12:14;;;;;;;3.20;1.40;;;20.40;59.60;;;;;;5003230;28;20096;-48
2022/07/10 02:14:40;;;;;;;2.95;1.55;;;20.40;59.60;;;;;;5002747;28;20736;-47
2022/07/10 02:17:07;;;;;;;5.25;1.50;;;20.30;59.70;;;;;;5003051;28;20041;-50
2022/07/10 02:19:33;;;;;;;3.00;1.38;;;20.30;59.70;;;;;;5003157;28;20048;-48
2022/07/10 02:21:59;;;;;;;3.88;1.77;;;20.30;59.70;;;;;;5003386;28;20049;-48
2022/07/10 02:24:25;;;;;;;2.70;1.60;;;20.20;59.50;;;;;;5002719;28;20034;-49
2022/07/10 02:26:51;;;;;;;3.90;1.83;;;20.20;59.60;;;;;;5002393;28;20515;-47
2022/07/10 02:29:17;;;;;;;3.15;1.60;;;20.20;60.10;;;;;;5002655;28;20026;-48
2022/07/10 02:31:43;;;;;;;2.65;1.30;;;20.20;60.20;;;;;;5003053;28;20083;-49
2022/07/10 02:34:12;;;;;;;3.60;1.50;;;20.10;60.20;;;;;;5002959;28;20034;-48
2022/07/10 02:36:39;;;;;;;3.63;1.50;;;20.10;59.70;;;;;;4999370;28;20030;-48
2022/07/10 02:39:05;;;;;;;2.72;1.85;;;20.10;60.60;;;;;;5001097;28;20503;-47
2022/07/10 02:41:31;;;;;;;2.90;1.52;;;20.10;59.50;;;;;;5002771;28;20025;-51
2022/07/10 02:43:56;;;;;;;4.28;1.75;;;20.10;59.60;;;;;;5002795;28;20574;-52
2022/07/10 02:46:22;;;;;;;3.50;1.95;;;20.10;59.70;;;;;;5002080;28;20041;-48
2022/07/10 02:48:48;;;;;;;2.35;1.30;;;20.10;59.40;;;;;;5002780;28;20036;-49
2022/07/10 02:51:13;;;;;;;3.88;1.50;;;20.00;59.40;;;;;;5002763;28;20748;-49
2022/07/10 02:53:39;;;;;;;3.85;1.52;;;20.00;59.40;;;;;;5002785;28;20050;-49
2022/07/10 02:56:05;;;;;;;3.53;1.55;;;20.00;59.40;;;;;;5002326;28;20018;-47
2022/07/10 02:58:31;;;;;;;2.88;1.42;;;20.00;59.50;;;;;;5002147;28;20036;-47
2022/07/10 03:00:57;;;;;;;2.13;1.27;;;20.00;59.50;;;;;;5002273;28;20034;-49
2022/07/10 03:03:23;;;;;;;2.20;1.20;;;20.00;59.30;;;;;;5002754;28;20026;-47
2022/07/10 03:05:48;;;;;;;3.58;1.60;;;20.00;59.50;;;;;;5002348;28;20104;-48
2022/07/10 03:08:14;;;;;;;3.08;1.67;;;20.00;59.60;;;;;;5002506;28;20121;-48
2022/07/10 03:10:40;;;;;;;3.63;1.50;;;20.00;59.30;;;;;;5002395;28;20088;-48
2022/07/10 03:13:06;;;;;;;3.03;1.58;;;20.00;59.40;;;;;;5002370;28;20437;-49
2022/07/10 03:15:32;;;;;;;3.65;1.40;;;20.00;59.50;;;;;;5002348;28;20701;-48
2022/07/10 03:17:58;;;;;;;2.88;1.60;;;20.00;59.50;;;;;;5005787;28;20096;-47
2022/07/10 03:20:23;;;;;;;2.63;1.52;;;20.00;59.50;;;;;;5006113;28;20045;-47
2022/07/10 03:22:49;;;;;;;2.55;1.33;;;20.00;59.50;;;;;;5005546;28;20046;-49
2022/07/10 03:25:15;;;;;;;2.95;1.40;;;19.90;59.60;;;;;;5005862;28;20092;-49
2022/07/10 03:27:41;;;;;;;3.83;1.63;;;19.90;59.70;;;;;;5004644;28;20026;-47
2022/07/10 03:30:07;;;;;;;2.72;1.40;;;19.90;59.80;;;;;;5005680;28;20033;-49
2022/07/10 03:32:33;;;;;;;4.18;1.70;;;19.90;60.00;;;;;;5005494;28;20030;-48
2022/07/10 03:34:59;;;;;;;3.38;1.60;;;19.90;60.10;;;;;;5005367;28;20486;-50
2022/07/10 03:37:25;;;;;;;2.55;1.02;;;19.90;59.90;;;;;;5006069;28;20029;-50
2022/07/10 03:39:51;;;;;;;4.32;1.70;;;19.90;59.80;;;;;;5005260;28;20041;-49
2022/07/10 03:42:17;;;;;;;3.65;1.50;;;19.90;59.70;;;;;;5005242;28;20022;-49
2022/07/10 03:44:42;;;;;;;3.22;1.30;;;19.90;59.80;;;;;;5005339;28;20109;-49
2022/07/10 03:47:08;;;;;;;2.33;1.33;;;19.90;59.70;;;;;;5005187;28;20026;-48
2022/07/10 03:49:34;;;;;;;2.63;1.58;;;19.90;59.70;;;;;;5005949;28;20041;-49
2022/07/10 03:52:01;;;;;;;4.47;1.42;;;19.90;60.80;;;;;;5004943;28;20038;-48
2022/07/10 03:54:27;;;;;;;3.35;1.40;;;19.90;59.60;;;;;;5005397;28;20036;-49
2022/07/10 03:59:38;;;;;;;2.75;1.50;;;19.90;59.60;;;;;;5005587;28;20873;-48
2022/07/10 04:02:04;;;;;;;3.28;1.42;;;19.80;59.70;;;;;;5005141;28;20041;-49
2022/07/10 04:04:30;;;;;;;3.22;1.60;;;19.80;59.60;;;;;;5004888;28;20029;-48
2022/07/10 04:06:55;;;;;;;3.30;1.70;;;19.80;59.70;;;;;;5036061;28;20025;-47
2022/07/10 04:09:22;;;;;;;3.25;1.40;;;19.80;59.80;;;;;;5009783;28;20033;-47
2022/07/10 04:11:47;;;;;;;3.17;1.52;;;19.80;59.90;;;;;;5025029;28;20265;-49
2022/07/10 04:14:13;;;;;;;3.40;1.60;;;19.80;59.80;;;;;;5024594;28;20022;-47
2022/07/10 04:16:38;;;;;;;3.28;1.73;;;19.70;59.80;;;;;;5009400;28;20460;-50
2022/07/10 04:19:04;;;;;;;2.45;1.30;;;19.70;59.90;;;;;;5004729;28;20043;-49
2022/07/10 04:21:30;;;;;;;2.70;1.60;;;19.70;59.80;;;;;;5004290;28;20045;-48
2022/07/10 04:23:55;;;;;;;3.50;1.55;;;19.70;60.20;;;;;;5004460;28;20032;-47
2022/07/10 04:26:21;;;;;;;2.95;1.38;;;19.70;60.30;;;;;;5004098;28;20740;-48
2022/07/10 04:28:47;;;;;;;3.67;1.40;;;19.60;60.30;;;;;;5003320;28;20654;-49
2022/07/10 04:31:12;;;;;;;3.13;1.65;;;19.70;60.40;;;;;;5004311;28;20131;-49
2022/07/10 04:33:38;;;;;;;2.85;1.50;;;19.70;60.40;;;;;;5002769;28;20520;-48
2022/07/10 04:36:04;;;;;;;2.90;1.40;;;19.60;60.40;;;;;;5003663;28;20038;-48
2022/07/10 04:38:31;;;;;;;3.58;1.80;;;19.60;60.80;;;;;;5003518;28;20045;-49
2022/07/10 04:40:57;;;;;;;3.83;1.30;;;19.60;60.90;;;;;;5004164;28;20029;-50
2022/07/10 04:43:22;;;;;;;2.83;1.42;;;19.60;61.20;;;;;;5004176;28;20026;-49
2022/07/10 04:45:48;;;;;;;4.10;1.52;;;19.50;61.20;;;;;;5004021;28;20036;-49
2022/07/10 04:48:14;;;;;;;3.00;1.60;;;19.50;61.20;;;;;;5004307;28;20113;-49
2022/07/10 04:50:39;;;;;;;3.63;1.65;;;19.50;61.20;;;;;;5003928;28;20026;-48
2022/07/10 04:53:05;;;;;;;3.30;2.05;;;19.50;61.30;;;;;;5004154;28;20040;-49
2022/07/10 04:55:30;;;;;;;3.20;1.85;;;19.50;61.30;;;;;;5004405;28;20448;-48
2022/07/10 04:57:56;;;;;;;4.80;1.80;;;19.50;61.40;;;;;;5004025;28;20028;-48
2022/07/10 05:00:22;;;;;;;4.10;1.75;;;19.50;61.50;;;;;;5003103;28;20096;-49
2022/07/10 05:02:47;;;;;;;3.55;1.75;;;19.40;61.40;;;;;;5003281;28;20473;-49
2022/07/10 05:05:13;;;;;;;3.10;1.50;;;19.40;61.40;;;;;;5003745;28;20061;-47
2022/07/10 05:07:39;;;;;;;3.33;1.65;;;19.40;61.70;;;;;;5003589;28;20097;-49
2022/07/10 05:10:05;;;;;;;3.75;2.20;;;19.40;61.60;;;;;;5002428;28;20026;-47
2022/07/10 05:12:31;;;;;;;3.65;1.70;;;19.40;61.70;;;;;;5003328;28;20038;-48
2022/07/10 05:14:57;;;;;;;3.10;1.42;;;19.50;61.80;;;;;;5003497;28;20083;-48
2022/07/10 05:17:23;;;;;;;4.53;1.70;;;19.50;61.60;;;;;;5003746;28;20407;-50
2022/07/10 05:19:48;;;;;;;3.35;1.60;;;19.60;61.40;;;;;;5003514;28;20100;-47
2022/07/10 05:22:14;;;;;;;3.17;1.67;;;19.60;61.20;;;;;;5003335;28;20101;-49
2022/07/10 05:24:40;;;;;;;2.90;1.70;;;19.60;61.40;;;;;;5003472;28;20101;-47
2022/07/10 05:27:06;;;;;;;2.72;1.50;;;19.60;61.10;;;;;;5002150;28;20029;-49
2022/07/10 05:29:31;;;;;;;2.67;1.38;;;19.70;61.10;;;;;;5003749;28;20034;-48
2022/07/10 05:31:57;;;;;;;2.95;1.50;;;19.70;61.00;;;;;;5003174;28;20117;-48
2022/07/10 05:34:22;;;;;;;2.80;1.60;;;19.80;60.80;;;;;;5003665;28;20040;-49
2022/07/10 05:36:48;;;;;;;2.90;1.75;;;19.80;61.10;;;;;;5002620;28;20097;-49
2022/07/10 05:39:14;;;;;;;2.95;1.52;;;19.80;60.80;;;;;;5005980;28;20125;-49
2022/07/10 05:41:39;;;;;;;4.65;2.05;;;19.80;61.00;;;;;;5012571;28;20061;-47
2022/07/10 05:44:05;;;;;;;3.17;1.40;;;19.80;61.00;;;;;;5002741;28;20076;-49
2022/07/10 05:46:31;;;;;;;3.13;1.73;;;19.80;61.10;;;;;;5001994;28;20036;-48
2022/07/10 05:48:56;;;;;;;3.00;1.60;;;19.80;61.10;;;;;;5003647;28;20552;-47
2022/07/10 05:51:22;;;;;;;4.40;1.80;;;19.80;61.20;;;;;;5003431;28;20092;-48
2022/07/10 05:53:48;;;;;;;2.97;1.65;;;19.80;61.10;;;;;;5034373;28;20022;-49
2022/07/10 05:56:13;;;;;;;3.80;1.80;;;19.80;60.80;;;;;;5002614;28;20100;-49
2022/07/10 05:58:39;;;;;;;3.88;1.90;;;19.90;61.00;;;;;;5003536;28;20040;-48
2022/07/10 06:01:04;;;;;;;4.18;1.70;;;19.90;60.90;;;;;;5003575;28;20410;-46
2022/07/10 06:03:30;;;;;;;3.38;1.75;;;19.90;60.70;;;;;;5002961;28;20062;-47
2022/07/10 06:05:56;;;;;;;3.55;1.67;;;19.90;60.80;;;;;;5002043;28;20474;-47
2022/07/10 06:08:21;;;;;;;2.88;1.70;;;19.90;60.70;;;;;;5001746;28;20660;-47
2022/07/10 06:10:47;;;;;;;3.30;1.85;;;19.90;60.70;;;;;;5002861;28;20022;-47
2022/07/10 06:13:13;;;;;;;3.15;2.00;;;19.90;60.70;;;;;;5003066;28;20048;-47
2022/07/10 06:15:39;;;;;;;2.80;1.58;;;20.00;60.40;;;;;;5002430;28;20040;-47
2022/07/10 06:18:05;;;;;;;2.80;1.50;;;20.00;60.20;;;;;;4996477;28;20032;-47
2022/07/10 06:20:31;;;;;;;4.18;1.85;;;20.00;60.20;;;;;;5001632;28;20030;-47
2022/07/10 06:22:57;;;;;;;3.17;1.67;;;20.00;60.50;;;;;;5001571;28;20529;-47
2022/07/10 06:25:23;;;;;;;4.30;2.10;;;19.90;60.30;;;;;;5001753;28;20109;-47
2022/07/10 06:27:49;;;;;;;3.13;1.83;;;19.90;60.60;;;;;;5001747;28;20093;-47
2022/07/10 06:30:15;;;;;;;3.15;1.58;;;19.90;60.50;;;;;;5001937;28;20057;-47
2022/07/10 06:32:41;;;;;;;2.80;1.67;;;20.00;60.60;;;;;;5001077;28;20034;-47
2022/07/10 06:35:07;;;;;;;2.63;1.70;;;19.90;60.50;;;;;;5001798;28;20045;-47
2022/07/10 06:37:34;;;;;;;3.38;1.80;;;19.90;60.30;;;;;;4998660;28;20038;-49
2022/07/10 06:40:00;;;;;;;4.10;1.80;;;19.90;60.60;;;;;;4999680;28;20551;-48
2022/07/10 06:42:25;;;;;;;5.03;1.58;;;20.00;60.60;;;;;;5001544;28;20038;-48
2022/07/10 06:44:51;;;;;;;3.63;1.70;;;20.00;60.10;;;;;;5002242;28;20050;-48
2022/07/10 06:50:06;;;;;;;2.72;1.65;;;20.10;60.10;;;;;;5002222;28;20080;-48
2022/07/10 06:52:35;;;;;;;2.88;1.52;;;20.20;60.90;;;;;;5004852;28;20040;-48
2022/07/10 06:55:02;;;;;;;3.38;1.73;;;20.20;60.30;;;;;;5005991;28;20057;-48
2022/07/10 06:57:28;;;;;;;3.97;2.10;;;20.30;59.50;;;;;;4986886;28;20469;-48
2022/07/10 06:59:54;;;;;;;2.72;1.50;;;20.40;59.20;;;;;;4986578;28;20042;-48
2022/07/10 07:02:20;;;;;;;3.72;1.83;;;20.40;58.90;;;;;;5003133;28;20024;-48
2022/07/10 07:04:46;;;;;;;3.17;1.63;;;20.40;58.90;;;;;;5005792;28;20030;-48
2022/07/10 07:07:15;;;;;;;3.47;1.73;;;20.40;58.90;;;;;;5005974;28;20720;-46
2022/07/10 07:09:42;;;;;;;2.92;1.50;;;20.40;57.80;;;;;;5005827;28;20045;-47
2022/07/10 07:12:08;;;;;;;3.20;1.52;;;20.40;57.60;;;;;;5004661;28;20022;-47
2022/07/10 07:14:35;;;;;;;3.72;1.55;;;20.40;58.00;;;;;;5004511;28;20045;-46
2022/07/10 07:17:05;;;;;;;3.95;1.85;;;20.50;58.70;;;;;;5003210;28;20647;-47
2022/07/10 07:23:09;;;;;;;3.95;1.80;;;20.50;58.00;;;;;;5003864;28;20532;-46
2022/07/10 07:25:02;;;;;;;6.18;1.70;;;20.50;58.20;;;;;;4995692;28;20096;-47
2022/07/10 07:27:27;;;;;;;9.88;2.88;;;20.50;57.40;;;;;;5004473;28;20088;-48
2022/07/10 07:29:53;;;;;;;8.30;2.58;;;20.60;58.10;;;;;;5002788;28;20026;-47
2022/07/10 07:32:19;;;;;;;7.32;2.20;;;20.60;58.20;;;;;;4999131;28;20530;-47
2022/07/10 07:34:44;;;;;;;5.38;1.85;;;20.60;58.40;;;;;;5003528;28;20014;-47
2022/07/10 07:37:10;;;;;;;3.53;1.60;;;20.70;57.70;;;;;;5002270;28;20105;-47
2022/07/10 07:39:36;;;;;;;2.63;1.27;;;20.70;57.40;;;;;;5011101;28;20033;-47
2022/07/10 07:42:02;;;;;;;2.40;1.50;;;20.80;57.30;;;;;;5018977;28;20124;-47
2022/07/10 07:44:29;;;;;;;5.03;1.73;;;20.80;57.00;;;;;;5004798;28;20018;-47
2022/07/10 07:46:55;;;;;;;3.03;1.48;;;20.90;57.10;;;;;;5004399;28;20022;-47
2022/07/10 07:49:20;;;;;;;3.97;1.55;;;20.90;56.60;;;;;;5004907;28;20493;-47
2022/07/10 07:51:47;;;;;;;2.00;1.15;;;21.00;56.50;;;;;;5004645;28;20038;-47
2022/07/10 07:54:13;;;;;;;2.20;1.17;;;21.10;56.50;;;;;;5003888;28;20026;-47
2022/07/10 07:56:38;;;;;;;3.60;1.50;;;21.10;56.30;;;;;;5004361;28;20123;-47
2022/07/10 07:59:04;;;;;;;2.67;1.30;;;21.20;56.20;;;;;;5004329;28;20474;-46
2022/07/10 08:01:30;;;;;;;2.67;1.20;;;21.20;56.20;;;;;;5004519;28;20038;-47
2022/07/10 08:03:55;;;;;;;3.20;1.38;;;21.30;56.20;;;;;;5004261;28;20124;-46
2022/07/10 08:06:21;;;;;;;2.60;1.40;;;21.30;56.00;;;;;;5004593;28;20053;-47
2022/07/10 08:08:47;;;;;;;2.70;1.50;;;21.40;56.60;;;;;;5003848;28;20045;-46
2022/07/10 08:11:12;;;;;;;3.40;1.40;;;21.40;56.40;;;;;;5004524;28;20100;-47
2022/07/10 08:13:38;;;;;;;2.40;1.25;;;21.40;56.50;;;;;;5004871;28;20033;-47
2022/07/10 08:16:04;;;;;;;3.80;1.25;;;21.30;56.40;;;;;;5004436;28;20576;-46
2022/07/10 08:18:30;;;;;;;3.17;1.23;;;21.40;56.30;;;;;;5003711;28;20024;-46
2022/07/10 08:20:55;;;;;;;3.00;1.40;;;21.40;56.20;;;;;;5003656;28;20021;-47
2022/07/10 08:23:21;;;;;;;2.22;1.00;;;21.40;56.20;;;;;;5003946;28;20637;-47
2022/07/10 08:25:47;;;;;;;1.73;0.82;;;21.50;56.00;;;;;;5003813;28;20692;-46
2022/07/10 08:28:12;;;;;;;3.42;1.35;;;21.50;55.70;;;;;;5003974;28;20032;-49
2022/07/10 08:30:38;;;;;;;5.00;1.25;;;21.50;55.60;;;;;;5001794;28;20101;-48
2022/07/10 08:33:04;;;;;;;2.97;1.10;;;21.50;55.80;;;;;;5004076;28;20041;-47
2022/07/10 08:35:30;;;;;;;2.53;0.90;;;21.50;55.70;;;;;;5003890;28;20034;-48
2022/07/10 08:37:56;;;;;;;2.63;1.10;;;21.50;55.50;;;;;;5004171;28;20129;-49
2022/07/10 08:40:22;;;;;;;6.03;1.40;;;21.50;55.40;;;;;;5016845;28;20800;-47
2022/07/10 08:42:48;;;;;;;3.35;1.00;;;21.50;55.00;;;;;;5023246;28;20022;-47
2022/07/10 08:45:14;;;;;;;2.20;0.82;;;21.50;55.10;;;;;;5023496;28;20049;-48
2022/07/10 08:47:42;;;;;;;2.63;0.75;;;21.50;54.80;;;;;;5005658;28;20072;-48
2022/07/10 08:50:22;;;;;;;3.90;1.10;;;21.50;54.60;;;;;;4996021;28;20018;-47
2022/07/10 08:52:56;;;;;;;3.72;1.08;;;21.50;54.80;;;;;;4983332;28;20113;-48
2022/07/10 08:55:26;;;;;;;1.90;0.80;;;21.50;54.70;;;;;;4983217;28;20073;-46
2022/07/10 08:57:52;;;;;;;2.03;0.95;;;21.60;54.90;;;;;;4983598;28;20153;-47
2022/07/10 09:00:18;;;;;;;2.03;0.77;;;21.60;54.90;;;;;;4983780;28;20034;-49
2022/07/10 09:02:44;;;;;;;2.03;0.90;;;21.60;54.80;;;;;;5001355;28;20119;-48
2022/07/10 09:05:09;;;;;;;2.75;0.85;;;21.70;54.90;;;;;;5003284;28;20065;-48
2022/07/10 09:07:36;;;;;;;1.65;0.70;;;21.70;54.70;;;;;;5003325;28;20030;-49
2022/07/10 09:10:09;;;;;;;3.40;1.00;;;21.70;54.70;;;;;;5012661;28;20030;-48
2022/07/10 09:12:58;;;;;;;2.40;0.88;;;21.70;54.70;;;;;;5017999;28;20555;-48
2022/07/10 09:15:25;;;;;;;2.50;0.80;;;21.80;54.60;;;;;;4993951;28;20084;-48
2022/07/10 09:17:58;;;;;;;2.15;0.80;;;21.80;54.40;;;;;;4997704;28;20105;-50
2022/07/10 09:20:26;;;;;;;2.33;1.13;;;21.80;54.50;;;;;;4997645;28;20026;-48
2022/07/10 09:22:52;;;;;;;1.60;0.80;;;21.90;54.40;;;;;;5002356;28;20091;-49
2022/07/10 09:25:18;;;;;;;3.20;0.90;;;21.90;54.70;;;;;;4998028;28;20539;-51
2022/07/10 09:27:58;;;;;;;2.05;0.80;;;21.90;55.70;;;;;;5002782;28;20045;-50
2022/07/10 09:30:34;;;;;;;2.88;0.95;;;21.90;56.30;;;;;;5002854;28;20052;-49
2022/07/10 09:33:19;;;;;;;2.50;1.00;;;22.00;56.50;;;;;;4983860;28;20038;-49
2022/07/10 09:38:44;;;;;;;3.20;0.93;;;22.00;56.60;;;;;;5002603;28;20030;-49
2022/07/10 09:41:15;;;;;;;2.80;1.30;;;22.00;56.60;;;;;;5022586;28;20040;-49
2022/07/10 09:43:47;;;;;;;2.90;1.13;;;22.00;56.60;;;;;;5022668;28;20052;-50
2022/07/10 09:46:13;;;;;;;2.87;1.00;;;22.00;56.60;;;;;;5017532;28;20030;-47
2022/07/10 09:48:38;;;;;;;2.70;0.90;;;22.10;56.60;;;;;;5003324;28;20029;-48
2022/07/10 09:51:09;;;;;;;3.15;1.27;;;22.20;56.50;;;;;;5002669;28;20033;-48
2022/07/10 09:53:42;;;;;;;2.75;0.75;;;22.20;56.50;;;;;;5002760;28;20109;-48
2022/07/10 09:56:10;;;;;;;2.25;0.90;;;22.20;56.30;;;;;;5002567;28;20430;-48
2022/07/10 09:58:37;;;;;;;3.28;0.95;;;22.20;56.10;;;;;;5003384;28;20041;-49
2022/07/10 10:01:07;;;;;;;2.60;0.90;;;22.20;56.00;;;;;;5003002;28;20486;-49
2022/07/10 10:03:43;;;;;;;1.98;0.85;;;22.30;56.00;;;;;;4983641;28;20042;-47
2022/07/10 10:06:15;;;;;;;2.60;0.80;;;22.30;55.90;;;;;;4983602;28;20023;-49
2022/07/10 10:09:05;;;;;;;3.45;1.17;;;22.30;55.70;;;;;;4987690;28;20057;-48
2022/07/10 10:11:35;;;;;;;2.45;0.82;;;22.40;55.70;;;;;;5014231;28;20060;-48
2022/07/10 10:14:02;;;;;;;2.38;0.85;;;22.40;55.60;;;;;;5011488;28;20041;-48
2022/07/10 10:16:29;;;;;;;1.63;0.70;;;22.40;55.50;;;;;;5006329;28;20088;-49
2022/07/10 10:21:40;;;;;;;2.22;1.10;;;22.40;55.40;;;;;;5003181;28;20120;-48
2022/07/10 10:24:06;;;;;;;2.00;0.77;;;22.50;55.40;;;;;;4997999;28;20034;-48
2022/07/10 10:26:32;;;;;;;4.85;0.80;;;22.50;55.40;;;;;;5019272;28;20149;-48
2022/07/10 10:29:01;;;;;;;3.33;0.90;;;22.50;55.50;;;;;;4986855;28;20113;-49
2022/07/10 10:31:28;;;;;;;3.78;1.00;;;22.50;55.10;;;;;;5000387;28;20137;-49
2022/07/10 10:33:55;;;;;;;1.73;0.93;;;22.60;55.10;;;;;;5006518;28;20030;-48
2022/07/10 10:36:45;;;;;;;4.38;0.90;;;22.60;55.30;;;;;;5004005;28;20076;-49
2022/07/10 10:39:20;;;;;;;1.98;0.80;;;22.60;55.20;;;;;;5005600;28;20040;-49
2022/07/10 10:41:51;;;;;;;2.47;0.70;;;22.60;54.80;;;;;;5005274;28;20682;-49
2022/07/10 10:44:17;;;;;;;1.95;0.80;;;22.60;54.70;;;;;;5003704;28;20025;-49
2022/07/10 10:47:28;;;;;;;3.92;1.10;;;22.60;54.60;;;;;;5004012;28;20025;-50
2022/07/10 10:49:51;;;;;;;3.92;1.23;;;22.60;54.50;;;;;;5003569;28;20258;-52
2022/07/10 10:52:17;;;;;;;3.65;1.10;;;22.70;54.50;;;;;;5006417;28;20499;-48
2022/07/10 10:54:59;;;;;;;3.00;1.00;;;22.70;54.40;;;;;;5007068;28;20034;-48
2022/07/10 10:57:31;;;;;;;5.88;1.00;;;22.70;54.40;;;;;;5006419;28;20026;-48
2022/07/10 10:59:59;;;;;;;2.55;1.10;;;22.70;54.60;;;;;;5006369;28;20526;-48
2022/07/10 11:02:37;;;;;;;3.78;1.00;;;22.70;54.20;;;;;;5005899;28;20465;-48
2022/07/10 11:05:31;;;;;;;4.22;1.08;;;22.70;54.20;;;;;;5007049;28;20030;-48
2022/07/10 11:08:07;;;;;;;2.78;1.10;;;22.70;54.20;;;;;;5006325;28;20022;-48
2022/07/10 11:10:46;;;;;;;1.80;0.80;;;22.70;54.10;;;;;;5006417;28;20038;-48
2022/07/10 11:13:16;;;;;;;4.35;1.10;;;22.70;54.00;;;;;;5002192;28;20061;-48
2022/07/10 11:15:47;;;;;;;3.53;1.15;;;22.80;53.70;;;;;;4986759;28;20715;-48
2022/07/10 11:18:15;;;;;;;2.47;1.10;;;22.80;53.80;;;;;;5005719;28;20038;-47
2022/07/10 11:20:44;;;;;;;3.28;0.98;;;22.80;53.60;;;;;;5005405;28;20139;-48
2022/07/10 11:23:25;;;;;;;2.22;0.93;;;22.80;53.60;;;;;;5005073;28;20037;-48
2022/07/10 11:26:01;;;;;;;2.53;0.90;;;22.80;53.70;;;;;;5005866;28;20592;-48
2022/07/10 11:28:57;;;;;;;2.33;1.00;;;22.80;53.60;;;;;;5005902;28;20460;-48
2022/07/10 11:31:24;;;;;;;1.80;0.93;;;22.80;53.60;;;;;;5005512;28;20096;-48
2022/07/10 11:33:53;;;;;;;2.45;0.88;;;22.80;53.60;;;;;;5005434;28;20037;-48
2022/07/10 11:36:31;;;;;;;2.22;1.00;;;22.80;53.50;;;;;;5005756;28;20037;-49
2022/07/10 11:39:06;;;;;;;1.70;0.80;;;22.90;53.50;;;;;;5006634;28;20033;-48
2022/07/10 11:41:32;;;;;;;2.47;1.05;;;22.90;53.40;;;;;;5025358;28;20036;-48
2022/07/10 11:44:00;;;;;;;1.88;0.90;;;22.90;53.30;;;;;;5024594;28;20409;-48
2022/07/10 11:46:28;;;;;;;1.33;0.63;;;22.90;53.40;;;;;;5019370;28;20026;-49
2022/07/10 11:48:56;;;;;;;1.23;0.70;;;22.90;53.40;;;;;;5005219;28;20271;-49
2022/07/10 11:51:27;;;;;;;3.03;1.02;;;22.90;53.20;;;;;;5005653;28;20136;-49
2022/07/10 11:54:03;;;;;;;6.72;2.05;;;22.90;53.20;;;;;;5005585;28;20015;-49
2022/07/10 11:56:34;;;;;;;4.78;1.70;;;22.90;53.50;;;;;;5004737;28;20610;-47
2022/07/10 11:59:11;;;;;;;7.82;2.38;;;23.00;54.40;;;;;;5005476;28;20041;-48
2022/07/10 12:01:50;;;;;;;5.97;1.83;;;23.00;54.30;;;;;;5004820;28;20092;-47
2022/07/10 12:04:18;;;;;;;7.35;1.90;;;23.00;54.40;;;;;;5004361;28;20157;-47
2022/07/10 12:06:48;;;;;;;5.40;1.60;;;23.10;54.50;;;;;;5004290;28;20030;-47
2022/07/10 12:09:16;;;;;;;3.90;1.17;;;23.10;54.20;;;;;;5008969;28;20546;-47
2022/07/10 12:11:44;;;;;;;5.47;1.48;;;23.10;50.80;;;;;;5024481;28;20541;-48
2022/07/10 12:14:20;;;;;;;3.63;1.38;;;23.10;48.70;;;;;;5011959;28;20084;-47
2022/07/10 12:16:53;;;;;;;2.92;1.05;;;23.10;49.00;;;;;;5003627;28;20041;-48
2022/07/10 12:19:22;;;;;;;5.05;1.48;;;23.00;42.40;;;;;;5003985;28;20018;-48
2022/07/10 12:21:48;;;;;;;2.15;0.47;;;22.90;43.00;;;;;;5004786;28;20022;-47
2022/07/10 12:24:16;;;;;;;2.05;0.60;;;22.90;42.60;;;;;;5001373;28;20034;-48
2022/07/10 12:26:43;;;;;;;2.45;1.10;;;22.90;44.80;;;;;;5008770;28;20537;-47
2022/07/10 12:29:25;;;;;;;3.13;1.10;;;22.80;45.70;;;;;;5003465;28;20044;-48
2022/07/10 12:31:54;;;;;;;2.85;0.80;;;22.80;46.50;;;;;;5003655;28;20030;-48
2022/07/10 12:34:33;;;;;;;1.85;0.65;;;22.80;46.40;;;;;;5003876;28;20029;-47
2022/07/10 12:37:05;;;;;;;3.05;0.70;;;22.90;47.20;;;;;;5003341;28;20514;-48
2022/07/10 12:39:31;;;;;;;1.98;0.57;;;22.90;47.00;;;;;;5010294;28;20540;-49
2022/07/10 12:42:02;;;;;;;2.63;1.02;;;22.90;45.00;;;;;;5010809;28;20108;-48
2022/07/10 12:44:36;;;;;;;2.95;0.80;;;22.90;45.80;;;;;;5004361;28;20061;-47
2022/07/10 12:47:10;;;;;;;2.17;0.47;;;22.90;45.50;;;;;;5003005;28;20022;-47
2022/07/10 12:49:55;;;;;;;2.13;0.90;;;22.90;45.70;;;;;;5003085;28;20413;-47
2022/07/10 12:52:22;;;;;;;1.60;0.60;;;22.90;45.20;;;;;;5004582;28;20026;-47
2022/07/10 12:54:48;;;;;;;1.63;0.47;;;22.90;44.50;;;;;;5004026;28;20034;-49
2022/07/10 12:57:14;;;;;;;2.88;1.00;;;23.00;46.10;;;;;;5004799;28;20026;-48
2022/07/10 12:59:41;;;;;;;2.47;0.60;;;23.00;45.10;;;;;;5004038;28;20036;-48
2022/07/10 13:02:19;;;;;;;2.15;0.70;;;23.00;44.40;;;;;;5004022;28;20232;-47
2022/07/10 13:04:55;;;;;;;2.25;0.77;;;23.00;43.50;;;;;;5004012;28;20441;-49